createdAt,value
2022-08-02T00:01:08.507Z,2.40
2022-08-02T00:06:10.311Z,2.80
2022-08-02T00:11:11.929Z,2.30
2022-08-02T00:16:16.768Z,2.60
2022-08-02T00:21:18.677Z,2.50
2022-08-02T00:26:20.735Z,2.43
2022-08-02T00:31:22.433Z,2.50
2022-08-02T00:36:23.938Z,2.20
2022-08-02T00:41:25.421Z,2.57
2022-08-02T00:46:26.900Z,2.60
2022-08-02T00:51:28.805Z,2.67
2022-08-02T00:56:30.559Z,2.27
2022-08-02T01:01:57.250Z,3.10
2022-08-02T01:07:01.329Z,3.33
2022-08-02T01:12:02.989Z,2.70
2022-08-02T01:17:14.535Z,2.80
2022-08-02T01:23:00.548Z,2.50
2022-08-02T01:28:39.995Z,2.60
2022-08-02T01:33:45.918Z,2.73
2022-08-02T01:38:49.733Z,2.73
2022-08-02T01:43:54.141Z,2.63
2022-08-02T01:48:57.299Z,2.83
2022-08-02T01:53:58.865Z,2.80
2022-08-02T01:59:00.602Z,2.97
2022-08-02T02:04:02.975Z,2.50
2022-08-02T02:09:05.194Z,2.90
2022-08-02T02:14:08.151Z,3.17
2022-08-02T02:19:10.639Z,2.80
2022-08-02T02:24:12.770Z,2.60
2022-08-02T02:29:16.489Z,2.40
2022-08-02T02:34:25.423Z,3.27
2022-08-02T02:39:28.425Z,3.30
2022-08-02T02:44:31.094Z,2.50
2022-08-02T02:49:35.242Z,2.97
2022-08-02T02:54:37.593Z,3.83
2022-08-02T02:59:43.044Z,3.30
2022-08-02T03:04:56.250Z,3.00
2022-08-02T03:09:59.648Z,2.50
2022-08-02T03:15:07.590Z,3.07
2022-08-02T03:20:20.691Z,3.47
2022-08-02T03:25:22.240Z,3.40
2022-08-02T03:30:26.860Z,2.83
2022-08-02T03:35:28.506Z,2.90
2022-08-02T03:40:30.340Z,2.90
2022-08-02T03:45:32.577Z,3.23
2022-08-02T03:50:34.447Z,2.70
2022-08-02T03:55:36.291Z,2.90
2022-08-02T04:00:37.933Z,3.20
2022-08-02T04:06:01.026Z,3.10
2022-08-02T04:11:20.077Z,3.60
2022-08-02T04:16:24.174Z,3.43
2022-08-02T04:21:49.955Z,3.20
2022-08-02T04:26:50.019Z,2.93
2022-08-02T04:31:53.490Z,4.47
2022-08-02T04:36:55.078Z,3.43
2022-08-02T04:42:08.472Z,3.80
2022-08-02T04:47:10.086Z,3.10
2022-08-02T04:52:11.852Z,3.40
2022-08-02T04:57:33.915Z,3.63
2022-08-02T05:02:36.136Z,3.07
2022-08-02T05:07:37.638Z,3.40
2022-08-02T05:12:39.382Z,3.60
2022-08-02T05:17:47.724Z,3.20
2022-08-02T05:22:49.910Z,2.73
2022-08-02T05:27:51.555Z,3.30
2022-08-02T05:32:53.198Z,3.30
2022-08-02T05:37:54.864Z,5.73
2022-08-02T05:42:57.266Z,3.03
2022-08-02T05:47:58.811Z,2.93
2022-08-02T05:53:17.935Z,3.63
2022-08-02T05:58:34.619Z,3.70
2022-08-02T06:03:39.877Z,4.57
2022-08-02T06:08:48.010Z,2.67
2022-08-02T06:13:51.685Z,3.97
2022-08-02T06:18:53.799Z,3.23
2022-08-02T06:23:57.684Z,2.97
2022-08-02T06:29:02.520Z,3.53
2022-08-02T06:34:04.019Z,2.93
2022-08-02T06:39:15.964Z,3.20
2022-08-02T06:44:45.961Z,2.88
2022-08-02T06:49:52.879Z,3.88
2022-08-02T06:55:00.262Z,2.80
2022-08-02T07:00:04.934Z,3.25
2022-08-02T07:05:07.475Z,2.20
2022-08-02T07:10:09.323Z,2.58
2022-08-02T07:15:12.520Z,1.80
2022-08-02T07:20:14.961Z,2.80
2022-08-02T07:25:16.587Z,1.70
2022-08-02T07:30:18.127Z,1.67
2022-08-02T07:35:21.078Z,3.20
2022-08-02T07:40:23.192Z,1.33
2022-08-02T07:45:25.018Z,1.65
2022-08-02T07:50:28.394Z,2.17
2022-08-02T07:55:39.319Z,1.52
2022-08-02T08:00:43.287Z,1.08
2022-08-02T08:05:44.819Z,1.40
2022-08-02T08:10:47.056Z,3.55
2022-08-02T08:15:52.131Z,2.13
2022-08-02T08:20:54.076Z,1.10
2022-08-02T08:25:55.998Z,1.25
2022-08-02T08:30:57.526Z,1.30
2022-08-02T08:35:59.141Z,1.48
2022-08-02T08:41:04.050Z,1.13
2022-08-02T08:46:06.519Z,1.30
2022-08-02T08:51:11.022Z,1.35
2022-08-02T08:56:16.278Z,1.55
2022-08-02T09:01:18.456Z,3.83
2022-08-02T09:06:20.490Z,1.20
2022-08-02T09:11:25.824Z,1.77
2022-08-02T09:16:29.703Z,1.10
2022-08-02T09:21:36.317Z,1.20
2022-08-02T09:26:37.834Z,1.33
2022-08-02T09:31:43.949Z,2.08
2022-08-02T09:36:54.333Z,1.55
2022-08-02T09:42:10.540Z,1.40
2022-08-02T09:47:16.856Z,2.35
2022-08-02T09:52:37.161Z,1.73
2022-08-02T09:57:51.045Z,1.38
2022-08-02T10:03:34.932Z,1.60
2022-08-02T10:08:36.958Z,2.05
2022-08-02T10:13:38.717Z,1.20
2022-08-02T10:18:41.505Z,1.40
2022-08-02T10:23:44.559Z,1.13
2022-08-02T10:28:48.519Z,1.55
2022-08-02T10:33:52.933Z,1.85
2022-08-02T10:38:55.702Z,0.90
2022-08-02T10:44:00.031Z,1.33
2022-08-02T10:49:24.014Z,3.17
2022-08-02T10:54:31.472Z,1.58
2022-08-02T10:59:36.303Z,1.40
2022-08-02T11:04:37.988Z,1.35
2022-08-02T11:09:41.112Z,1.77
2022-08-02T11:14:44.457Z,2.00
2022-08-02T11:20:11.896Z,1.08
2022-08-02T11:25:22.610Z,1.08
2022-08-02T11:30:26.887Z,1.33
2022-08-02T11:35:37.053Z,1.23
2022-08-02T11:40:38.624Z,1.40
2022-08-02T11:45:40.143Z,1.10
2022-08-02T11:50:41.668Z,1.17
2022-08-02T11:55:43.186Z,1.88
2022-08-02T12:00:47.105Z,2.25
2022-08-02T12:06:05.245Z,1.10
2022-08-02T12:11:08.155Z,1.10
2022-08-02T12:16:32.457Z,1.30
2022-08-02T12:21:34.566Z,1.10
2022-08-02T12:26:46.782Z,1.10
2022-08-02T12:31:57.367Z,1.02
2022-08-02T12:37:10.272Z,0.95
2022-08-02T12:42:14.337Z,0.85
2022-08-02T12:47:16.113Z,1.10
2022-08-02T12:52:24.227Z,1.92
2022-08-02T12:57:25.713Z,0.82
2022-08-02T13:02:27.295Z,0.90
2022-08-02T13:07:28.877Z,1.00
2022-08-02T13:12:30.380Z,0.82
2022-08-02T13:17:31.983Z,1.13
2022-08-02T13:22:33.762Z,1.38
2022-08-02T13:27:37.914Z,1.08
2022-08-02T13:32:39.450Z,1.23
2022-08-02T13:37:41.926Z,1.10
2022-08-02T13:42:43.744Z,1.30
2022-08-02T13:48:03.249Z,1.25
2022-08-02T13:53:07.120Z,1.70
2022-08-02T13:58:09.646Z,1.17
2022-08-02T14:03:12.132Z,1.63
2022-08-02T14:08:16.534Z,1.50
2022-08-02T14:13:19.237Z,1.52
2022-08-02T14:18:21.049Z,1.30
2022-08-02T14:23:49.889Z,1.08
2022-08-02T14:28:45.092Z,1.35
2022-08-02T14:33:51.575Z,0.98
2022-08-02T14:38:53.177Z,1.30
2022-08-02T14:44:03.909Z,1.42
2022-08-02T14:49:07.582Z,1.65
2022-08-02T14:54:11.813Z,1.00
2022-08-02T14:59:13.532Z,1.83
2022-08-02T15:04:15.194Z,1.23
2022-08-02T15:09:16.760Z,1.10
2022-08-02T15:14:22.347Z,2.70
2022-08-02T15:19:56.359Z,1.02
2022-08-02T15:24:50.157Z,1.83
2022-08-02T15:29:51.780Z,1.27
2022-08-02T15:34:53.269Z,1.30
2022-08-02T15:39:54.913Z,1.10
2022-08-02T15:44:56.443Z,1.25
2022-08-02T15:49:58.637Z,1.10
2022-08-02T15:55:07.154Z,1.42
2022-08-02T16:00:14.186Z,1.20
2022-08-02T16:05:20.799Z,0.98
2022-08-02T16:10:23.211Z,1.10
2022-08-02T16:15:25.314Z,1.02
2022-08-02T16:20:26.788Z,1.38
2022-08-02T16:25:28.334Z,1.10
2022-08-02T16:30:29.818Z,1.40
2022-08-02T16:35:31.327Z,2.70
2022-08-02T16:40:34.316Z,1.35
2022-08-02T16:45:36.083Z,1.88
2022-08-02T16:50:37.804Z,0.98
2022-08-02T16:55:39.532Z,2.50
2022-08-02T17:00:53.937Z,1.25
2022-08-02T17:05:56.054Z,1.10
2022-08-02T17:10:58.526Z,1.05
2022-08-02T17:16:20.606Z,1.50
2022-08-02T17:21:27.431Z,1.85
2022-08-02T17:26:30.188Z,1.15
2022-08-02T17:31:37.199Z,1.08
2022-08-02T17:36:45.308Z,1.58
2022-08-02T17:41:51.469Z,1.17
2022-08-02T17:46:52.995Z,1.10
2022-08-02T17:52:48.372Z,1.40
2022-08-02T17:57:16.837Z,1.08
2022-08-02T18:02:18.895Z,1.20
2022-08-02T18:07:25.002Z,1.23
2022-08-02T18:12:26.842Z,1.13
2022-08-02T18:17:29.422Z,1.60
2022-08-02T18:22:31.081Z,1.63
2022-08-02T18:27:33.220Z,1.75
2022-08-02T18:33:55.465Z,1.17
2022-08-02T18:37:57.347Z,1.38
2022-08-02T18:43:07.251Z,1.42
2022-08-02T18:48:09.470Z,1.90
2022-08-02T18:53:41.925Z,1.55
2022-08-02T18:59:03.312Z,1.20
2022-08-02T19:04:05.564Z,1.20
2022-08-02T19:09:14.776Z,1.48
2022-08-02T19:14:24.077Z,1.35
2022-08-02T19:19:29.722Z,1.48
2022-08-02T19:24:31.496Z,1.30
2022-08-02T19:29:43.340Z,2.05
2022-08-02T19:34:50.302Z,1.30
2022-08-02T19:39:52.164Z,1.80
2022-08-02T19:44:54.666Z,2.25
2022-08-02T19:49:56.330Z,1.45
2022-08-02T19:55:01.886Z,2.30
2022-08-02T20:00:21.502Z,2.63
2022-08-02T20:05:26.607Z,2.15
2022-08-02T20:10:28.650Z,1.75
2022-08-02T20:15:51.680Z,1.40
2022-08-02T20:20:53.503Z,1.17
2022-08-02T20:25:55.152Z,1.60
2022-08-02T20:30:58.046Z,1.80
2022-08-02T20:36:08.571Z,1.58
2022-08-02T20:41:10.274Z,1.73
2022-08-02T20:46:23.459Z,1.67
2022-08-02T20:51:33.676Z,1.52
2022-08-02T20:56:35.610Z,1.42
2022-08-02T21:01:37.991Z,1.73
2022-08-02T21:06:41.069Z,2.28
2022-08-02T21:11:47.608Z,1.70
2022-08-02T21:16:52.572Z,1.48
2022-08-02T21:21:54.785Z,1.60
2022-08-02T21:26:58.287Z,1.45
2022-08-02T21:31:59.881Z,1.92
2022-08-02T21:37:09.854Z,2.17
2022-08-02T21:42:11.784Z,1.77
2022-08-02T21:47:27.229Z,1.60
2022-08-02T21:52:29.242Z,1.92
2022-08-02T21:57:34.582Z,1.80
2022-08-02T22:02:36.516Z,1.73
2022-08-02T22:07:38.233Z,1.60
2022-08-02T22:12:40.112Z,1.95
2022-08-02T22:17:53.599Z,2.17
2022-08-02T22:23:01.592Z,1.83
2022-08-02T22:28:38.051Z,3.53
2022-08-02T22:34:00.183Z,1.77
2022-08-02T22:39:05.882Z,1.77
2022-08-02T22:44:21.221Z,2.05
2022-08-02T22:49:38.025Z,2.75
2022-08-02T22:54:44.394Z,1.80
2022-08-02T22:59:46.470Z,1.67
2022-08-02T23:04:50.103Z,2.33
2022-08-02T23:09:51.658Z,2.55
2022-08-02T23:14:53.216Z,2.10
2022-08-02T23:19:54.740Z,1.90
2022-08-02T23:24:56.361Z,1.48
2022-08-02T23:29:58.014Z,2.00
2022-08-02T23:34:59.572Z,2.00
2022-08-02T23:40:01.099Z,1.90
2022-08-02T23:45:02.677Z,1.60
2022-08-02T23:50:04.433Z,3.38
2022-08-02T23:55:06.395Z,2.30
